Aviation Digital Data Service (ADDS)

Output produced by METARs form (1422 UTC 08 February 2016)
found at http://aviationweather.gov/adds/metars/
 
KLCH 081122Z 0812/0912 33010G15KT P6SM SKC 
     FM081600 33017G22KT P6SM SKC 
     FM090000 33012KT P6SM SKC